Carrsville, Kentucky
Current Conditions -  °F | °C
As of 11:55 PM on Tuesday 21 Oct 2014 (Local Time) from K5M9 Reporting Station
Clear Clear  
Wind Chill: 44°   Ceiling: Unl
Heat Index: 47°   Visibility: 10mi
Dew Point: 41°   Wind: 6mph
Humidity: 81%   Direction: 40°NE
Pressure: 30.17"   Gusts: NA
Location:  37.1328°N, 88.3656°W
Report Text: K5M9 220455Z AUTO 04005KT 10SM CLR 08/05 A3017 RMK AO2 T00810051
Loading
Personal Weather Stations






























Interactive Weather Map
Tropical Storm Tracking
New forecast layout! Learn more

10-Day Weather Forecast

Advertisements
Track Severe Weather on mobile